createdAt,value
2019-01-13T00:01:53.992Z,4.60
2019-01-13T00:04:22.599Z,4.60
2019-01-13T00:06:51.185Z,4.50
2019-01-13T00:09:19.673Z,4.50
2019-01-13T00:11:48.233Z,4.50
2019-01-13T00:14:16.588Z,4.50
2019-01-13T00:16:45.158Z,4.50
2019-01-13T00:19:13.599Z,4.50
2019-01-13T00:21:42.430Z,4.50
2019-01-13T00:24:12.863Z,4.50
2019-01-13T00:26:44.521Z,4.50
2019-01-13T00:29:13.117Z,4.50
2019-01-13T00:31:41.857Z,4.50
2019-01-13T00:34:10.498Z,4.50
2019-01-13T00:36:39.110Z,4.50
2019-01-13T00:39:10.542Z,4.50
2019-01-13T00:41:39.081Z,4.40
2019-01-13T00:44:07.658Z,4.40
2019-01-13T00:46:36.262Z,4.40
2019-01-13T00:49:04.858Z,4.30
2019-01-13T00:51:33.421Z,4.30
2019-01-13T00:54:01.824Z,4.20
2019-01-13T00:56:30.313Z,4.20
2019-01-13T00:58:58.646Z,4.20
2019-01-13T01:01:27.286Z,4.10
2019-01-13T01:03:55.988Z,4.10
2019-01-13T01:06:24.817Z,4.10
2019-01-13T01:08:53.777Z,4.00
2019-01-13T01:11:22.368Z,4.00
2019-01-13T01:13:50.941Z,4.00
2019-01-13T01:16:19.344Z,4.00
2019-01-13T01:18:47.838Z,4.00
2019-01-13T01:21:16.218Z,4.00
2019-01-13T01:23:44.745Z,4.00
2019-01-13T01:26:13.341Z,4.00
2019-01-13T01:28:42.113Z,4.00
2019-01-13T01:31:11.592Z,4.00
2019-01-13T01:33:40.221Z,4.10
2019-01-13T01:36:09.913Z,4.10
2019-01-13T01:38:38.799Z,4.20
2019-01-13T01:41:07.283Z,4.20
2019-01-13T01:43:35.628Z,4.20
2019-01-13T01:46:04.298Z,4.20
2019-01-13T01:48:32.626Z,4.20
2019-01-13T01:51:01.150Z,4.20
2019-01-13T01:53:29.717Z,4.20
2019-01-13T01:55:58.890Z,4.30
2019-01-13T01:58:27.605Z,4.30
2019-01-13T02:00:56.174Z,4.30
2019-01-13T02:03:24.508Z,4.30
2019-01-13T02:05:52.936Z,4.30
2019-01-13T02:08:21.344Z,4.30
2019-01-13T02:10:49.937Z,4.30
2019-01-13T02:13:18.445Z,4.20
2019-01-13T02:15:46.953Z,4.20
2019-01-13T02:18:15.353Z,4.20
2019-01-13T02:20:43.826Z,4.20
2019-01-13T02:23:12.416Z,4.20
2019-01-13T02:25:40.745Z,4.20
2019-01-13T02:28:09.071Z,4.20
2019-01-13T02:30:37.577Z,4.30
2019-01-13T02:33:05.922Z,4.30
2019-01-13T02:35:34.241Z,4.30
2019-01-13T02:38:02.801Z,4.20
2019-01-13T02:40:31.101Z,4.20
2019-01-13T02:42:59.419Z,4.20
2019-01-13T02:45:28.500Z,4.10
2019-01-13T02:47:56.810Z,4.10
2019-01-13T02:50:25.143Z,4.00
2019-01-13T02:52:55.059Z,4.00
2019-01-13T02:55:23.560Z,3.90
2019-01-13T02:57:52.045Z,3.90
2019-01-13T03:00:25.864Z,3.90
2019-01-13T03:02:54.713Z,3.90
2019-01-13T03:05:23.389Z,3.90
2019-01-13T03:07:51.988Z,3.90
2019-01-13T03:10:22.613Z,3.90
2019-01-13T03:12:51.827Z,3.90
2019-01-13T03:15:21.754Z,3.90
2019-01-13T03:17:50.943Z,3.90
2019-01-13T03:20:19.552Z,3.90
2019-01-13T03:22:48.157Z,3.90
2019-01-13T03:25:18.502Z,3.80
2019-01-13T03:27:46.827Z,3.80
2019-01-13T03:30:17.770Z,3.80
2019-01-13T03:32:46.563Z,3.80
2019-01-13T03:35:15.223Z,3.80
2019-01-13T03:37:43.850Z,3.80
2019-01-13T03:40:25.713Z,3.70
2019-01-13T03:42:54.822Z,3.60
2019-01-13T03:45:23.337Z,3.50
2019-01-13T03:47:51.973Z,3.50
2019-01-13T03:50:22.300Z,3.60
2019-01-13T03:52:53.104Z,3.60
2019-01-13T03:55:23.988Z,3.60
2019-01-13T03:57:52.526Z,3.70
2019-01-13T04:00:22.841Z,3.70
2019-01-13T04:02:51.536Z,3.80
2019-01-13T04:05:20.098Z,3.70
2019-01-13T04:07:48.575Z,3.70
2019-01-13T04:10:17.505Z,3.70
2019-01-13T04:12:46.088Z,3.70
2019-01-13T04:16:01.134Z,3.60
2019-01-13T04:18:29.680Z,3.60
2019-01-13T04:20:58.288Z,3.60
2019-01-13T04:23:26.916Z,3.70
2019-01-13T04:25:55.305Z,3.70
2019-01-13T04:28:23.708Z,3.70
2019-01-13T04:30:52.477Z,3.70
2019-01-13T04:33:20.784Z,3.70
2019-01-13T04:35:49.442Z,3.70
2019-01-13T04:38:17.845Z,3.70
2019-01-13T04:40:46.215Z,3.70
2019-01-13T04:43:14.597Z,3.70
2019-01-13T04:45:43.062Z,3.70
2019-01-13T04:48:11.418Z,3.70
2019-01-13T04:50:39.914Z,3.80
2019-01-13T04:53:08.415Z,3.90
2019-01-13T04:55:36.823Z,3.90
2019-01-13T04:58:05.507Z,3.90
2019-01-13T05:00:33.897Z,3.90
2019-01-13T05:03:02.477Z,4.00
2019-01-13T05:05:50.541Z,4.00
2019-01-13T05:08:19.085Z,4.00
2019-01-13T05:10:47.569Z,4.00
2019-01-13T05:13:16.053Z,4.00
2019-01-13T05:15:44.369Z,4.00
2019-01-13T05:18:12.835Z,4.00
2019-01-13T05:20:41.333Z,4.00
2019-01-13T05:23:10.906Z,4.00
2019-01-13T05:25:39.265Z,4.10
2019-01-13T05:28:07.676Z,4.10
2019-01-13T05:30:36.472Z,4.10
2019-01-13T05:33:04.848Z,4.10
2019-01-13T05:35:33.260Z,4.10
2019-01-13T05:38:01.580Z,4.10
2019-01-13T05:40:30.101Z,4.10
2019-01-13T05:42:58.509Z,4.20
2019-01-13T05:45:27.106Z,4.20
2019-01-13T05:47:55.669Z,4.20
2019-01-13T05:50:25.277Z,4.20
2019-01-13T05:52:54.329Z,4.30
2019-01-13T05:55:23.605Z,4.40
2019-01-13T05:57:52.041Z,4.40
2019-01-13T06:00:23.345Z,4.50
2019-01-13T06:02:51.849Z,4.60
2019-01-13T06:05:20.328Z,4.60
2019-01-13T06:07:48.856Z,4.70
2019-01-13T06:10:18.189Z,4.70
2019-01-13T06:12:46.866Z,4.70
2019-01-13T06:15:18.558Z,4.80
2019-01-13T06:17:47.027Z,4.80
2019-01-13T06:20:25.801Z,4.90
2019-01-13T06:22:54.367Z,4.90
2019-01-13T06:25:22.786Z,4.90
2019-01-13T06:27:51.508Z,5.00
2019-01-13T06:30:21.896Z,5.00
2019-01-13T06:32:50.601Z,5.00
2019-01-13T06:35:18.942Z,5.00
2019-01-13T06:37:47.829Z,5.10
2019-01-13T06:40:21.766Z,5.10
2019-01-13T06:42:50.283Z,5.10
2019-01-13T06:45:21.306Z,5.10
2019-01-13T06:47:49.881Z,5.10
2019-01-13T06:50:18.784Z,5.20
2019-01-13T06:52:48.021Z,5.20
2019-01-13T06:55:16.573Z,5.20
2019-01-13T06:57:44.985Z,5.20
2019-01-13T07:00:24.377Z,5.20
2019-01-13T07:02:53.057Z,5.20
2019-01-13T07:05:21.473Z,5.20
2019-01-13T07:07:50.066Z,5.20
2019-01-13T07:10:18.448Z,5.30
2019-01-13T07:12:47.008Z,5.30
2019-01-13T07:15:16.213Z,5.30
2019-01-13T07:17:44.813Z,5.40
2019-01-13T07:20:15.626Z,5.40
2019-01-13T07:22:44.342Z,5.40
2019-01-13T07:25:13.341Z,5.50
2019-01-13T07:27:41.717Z,5.50
2019-01-13T07:30:29.841Z,5.60
2019-01-13T07:32:58.355Z,5.60
2019-01-13T07:35:26.941Z,5.70
2019-01-13T07:37:55.360Z,5.70
2019-01-13T07:40:24.204Z,5.70
2019-01-13T07:42:53.532Z,5.80
2019-01-13T07:45:24.133Z,5.80
2019-01-13T07:47:52.677Z,5.90
2019-01-13T07:50:21.265Z,5.90
2019-01-13T07:52:49.796Z,5.90
2019-01-13T07:55:20.001Z,6.00
2019-01-13T07:57:49.696Z,6.00
2019-01-13T08:00:25.013Z,6.10
2019-01-13T08:02:53.782Z,6.10
2019-01-13T08:05:22.097Z,6.10
2019-01-13T08:07:50.626Z,6.20
2019-01-13T08:10:19.073Z,6.20
2019-01-13T08:12:47.584Z,6.40
2019-01-13T08:15:17.882Z,6.50
2019-01-13T08:17:46.549Z,6.70
2019-01-13T08:20:18.805Z,6.90
2019-01-13T08:22:47.413Z,7.20
2019-01-13T08:25:15.726Z,7.60
2019-01-13T08:27:44.870Z,7.80
2019-01-13T08:30:18.258Z,8.10
2019-01-13T08:32:47.025Z,8.30
2019-01-13T08:35:16.609Z,8.40
2019-01-13T08:37:45.515Z,8.50
2019-01-13T08:40:16.455Z,8.50
2019-01-13T08:42:44.870Z,8.60
2019-01-13T08:45:13.549Z,8.60
2019-01-13T08:47:41.978Z,8.70
2019-01-13T08:50:14.137Z,8.80
2019-01-13T08:52:42.569Z,8.90
2019-01-13T08:55:11.235Z,9.10
2019-01-13T08:57:40.221Z,9.30
2019-01-13T09:00:15.207Z,9.40
2019-01-13T09:02:43.842Z,9.50
2019-01-13T09:05:12.368Z,9.70
2019-01-13T09:07:40.949Z,9.70
2019-01-13T09:10:11.422Z,9.70
2019-01-13T09:12:39.845Z,9.70
2019-01-13T09:15:11.301Z,9.70
2019-01-13T09:17:39.692Z,9.70
2019-01-13T09:20:11.141Z,9.70
2019-01-13T09:22:39.553Z,9.70
2019-01-13T09:25:08.205Z,9.70
2019-01-13T09:27:36.606Z,9.70
2019-01-13T09:30:08.164Z,9.60
2019-01-13T09:32:39.481Z,9.60
2019-01-13T09:35:07.329Z,9.60
2019-01-13T09:37:36.118Z,9.60
2019-01-13T09:40:05.974Z,9.60
2019-01-13T09:42:34.421Z,9.60
2019-01-13T09:45:03.157Z,9.70
2019-01-13T09:47:31.974Z,9.80
2019-01-13T09:50:00.500Z,9.90
2019-01-13T09:52:28.991Z,10.00
2019-01-13T09:54:57.328Z,10.10
2019-01-13T09:57:25.765Z,10.10
2019-01-13T09:59:54.658Z,10.20
2019-01-13T10:02:23.507Z,10.30
2019-01-13T10:04:53.092Z,10.40
2019-01-13T10:07:21.438Z,10.50
2019-01-13T10:09:49.773Z,10.60
2019-01-13T10:12:18.246Z,10.70
2019-01-13T10:14:46.635Z,10.80
2019-01-13T10:17:15.445Z,10.90
2019-01-13T10:19:43.890Z,10.90
2019-01-13T10:22:12.309Z,10.90
2019-01-13T10:24:40.730Z,10.80
2019-01-13T10:27:09.381Z,10.70
2019-01-13T10:29:37.931Z,10.60
2019-01-13T10:32:06.489Z,10.50
2019-01-13T10:34:35.107Z,10.40
2019-01-13T10:37:03.529Z,10.30
2019-01-13T10:39:32.237Z,10.20
2019-01-13T10:42:00.764Z,10.10
2019-01-13T10:44:29.449Z,10.00
2019-01-13T10:46:58.322Z,9.90
2019-01-13T10:49:27.705Z,9.90
2019-01-13T10:51:56.221Z,9.80
2019-01-13T10:54:25.273Z,9.80
2019-01-13T10:56:53.991Z,9.90
2019-01-13T10:59:22.591Z,9.90
2019-01-13T11:01:51.161Z,10.00
2019-01-13T11:04:20.021Z,10.00
2019-01-13T11:06:48.333Z,10.10
2019-01-13T11:09:16.806Z,10.20
2019-01-13T11:11:45.245Z,10.20
2019-01-13T11:14:13.633Z,10.20
2019-01-13T11:16:42.162Z,10.20
2019-01-13T11:19:10.585Z,10.20
2019-01-13T11:21:39.224Z,10.10
2019-01-13T11:24:08.274Z,10.10
2019-01-13T11:26:37.017Z,10.30
2019-01-13T11:29:05.653Z,10.40
2019-01-13T11:31:35.351Z,10.60
2019-01-13T11:34:04.001Z,10.70
2019-01-13T11:36:32.324Z,10.80
2019-01-13T11:39:00.828Z,11.00
2019-01-13T11:41:29.754Z,11.10
2019-01-13T11:43:58.229Z,11.20
2019-01-13T11:46:26.565Z,11.20
2019-01-13T11:48:55.093Z,11.20
2019-01-13T11:51:23.510Z,11.20
2019-01-13T11:53:52.089Z,11.30
2019-01-13T11:56:20.489Z,11.40
2019-01-13T11:58:49.241Z,11.50
2019-01-13T12:01:19.081Z,11.60
2019-01-13T12:03:47.609Z,11.70
2019-01-13T12:06:18.349Z,11.80
2019-01-13T12:08:46.866Z,11.80
2019-01-13T12:11:15.853Z,11.70
2019-01-13T12:13:44.245Z,11.70
2019-01-13T12:16:12.661Z,11.60
2019-01-13T12:18:41.007Z,11.50
2019-01-13T12:21:09.521Z,11.50
2019-01-13T12:23:37.869Z,11.50
2019-01-13T12:26:06.429Z,11.50
2019-01-13T12:28:34.873Z,11.40
2019-01-13T12:31:03.609Z,11.30
2019-01-13T12:33:32.172Z,11.30
2019-01-13T12:36:00.741Z,11.30
2019-01-13T12:38:29.148Z,11.30
2019-01-13T12:40:57.629Z,11.30
2019-01-13T12:43:25.969Z,11.30
2019-01-13T12:45:55.551Z,11.20
2019-01-13T12:48:23.975Z,11.20
2019-01-13T12:50:52.734Z,11.10
2019-01-13T12:53:21.318Z,11.00
2019-01-13T12:55:50.035Z,10.90
2019-01-13T12:58:18.505Z,10.90
2019-01-13T13:00:49.289Z,10.80
2019-01-13T13:03:17.643Z,10.80
2019-01-13T13:05:46.141Z,10.90
2019-01-13T13:08:14.444Z,10.90
2019-01-13T13:10:46.628Z,10.90
2019-01-13T13:13:15.261Z,10.90
2019-01-13T13:15:43.842Z,10.90
2019-01-13T13:18:12.493Z,10.90
2019-01-13T13:20:41.157Z,10.90
2019-01-13T13:23:10.420Z,10.90
2019-01-13T13:25:40.520Z,11.00
2019-01-13T13:28:08.933Z,11.20
2019-01-13T13:30:37.333Z,11.40
2019-01-13T13:33:06.133Z,11.60
2019-01-13T13:35:39.633Z,11.80
2019-01-13T13:38:06.590Z,11.90
2019-01-13T13:40:35.272Z,12.00
2019-01-13T13:43:03.797Z,12.00
2019-01-13T13:45:32.260Z,12.00
2019-01-13T13:48:00.669Z,11.90
2019-01-13T13:50:29.181Z,11.90
2019-01-13T13:52:57.564Z,12.00
2019-01-13T13:55:26.269Z,12.10
2019-01-13T13:57:54.785Z,12.10
2019-01-13T14:00:28.991Z,12.10
2019-01-13T14:02:57.410Z,12.00
2019-01-13T14:05:26.358Z,12.00
2019-01-13T14:07:54.952Z,11.90
2019-01-13T14:10:26.544Z,11.80
2019-01-13T14:12:54.957Z,11.80
2019-01-13T14:15:23.716Z,11.80
2019-01-13T14:17:52.085Z,11.70
2019-01-13T14:20:20.730Z,11.50
2019-01-13T14:22:49.841Z,11.40
2019-01-13T14:25:18.238Z,11.20
2019-01-13T14:27:47.393Z,11.00
2019-01-13T14:30:21.694Z,10.90
2019-01-13T14:32:50.160Z,10.70
2019-01-13T14:35:18.787Z,10.60
2019-01-13T14:37:47.507Z,10.50
2019-01-13T14:40:18.095Z,10.40
2019-01-13T14:42:46.921Z,10.30
2019-01-13T14:45:17.473Z,10.30
2019-01-13T14:47:46.112Z,10.20
2019-01-13T14:50:18.720Z,10.10
2019-01-13T14:52:48.249Z,10.10
2019-01-13T14:55:17.081Z,10.00
2019-01-13T14:57:45.648Z,9.90
2019-01-13T15:00:25.641Z,9.80
2019-01-13T15:03:00.189Z,9.80
2019-01-13T15:05:44.951Z,9.70
2019-01-13T15:08:13.469Z,9.70
2019-01-13T15:10:41.974Z,9.60
2019-01-13T15:13:10.553Z,9.50
2019-01-13T15:15:38.882Z,9.40
2019-01-13T15:18:07.606Z,9.40
2019-01-13T15:20:36.071Z,9.30
2019-01-13T15:23:05.162Z,9.20
2019-01-13T15:25:33.699Z,9.20
2019-01-13T15:28:02.078Z,9.10
2019-01-13T15:30:35.178Z,9.00
2019-01-13T15:33:04.870Z,8.90
2019-01-13T15:35:33.427Z,8.90
2019-01-13T15:38:01.874Z,8.80
2019-01-13T15:40:30.410Z,8.70
2019-01-13T15:42:58.995Z,8.60
2019-01-13T15:45:27.673Z,8.50
2019-01-13T15:47:56.318Z,8.50
2019-01-13T15:50:27.269Z,8.40
2019-01-13T15:52:55.779Z,8.30
2019-01-13T15:55:24.442Z,8.20
2019-01-13T15:57:52.796Z,8.10
2019-01-13T16:00:26.567Z,8.00
2019-01-13T16:02:55.110Z,7.90
2019-01-13T16:05:23.610Z,7.90
2019-01-13T16:07:52.044Z,7.80
2019-01-13T16:10:21.918Z,7.70
2019-01-13T16:12:50.561Z,7.60
2019-01-13T16:15:19.156Z,7.50
2019-01-13T16:17:47.665Z,7.50
2019-01-13T16:20:27.693Z,7.40
2019-01-13T16:22:56.467Z,7.40
2019-01-13T16:25:25.141Z,7.40
2019-01-13T16:27:54.800Z,7.40
2019-01-13T16:30:24.568Z,7.40
2019-01-13T16:32:53.082Z,7.40
2019-01-13T16:35:21.635Z,7.30
2019-01-13T16:37:51.809Z,7.20
2019-01-13T16:40:22.137Z,7.10
2019-01-13T16:45:38.187Z,7.10
2019-01-13T16:48:07.529Z,7.00
2019-01-13T16:50:36.059Z,6.90
2019-01-13T16:53:05.945Z,6.90
2019-01-13T16:55:34.822Z,6.80
2019-01-13T16:58:04.456Z,6.80
2019-01-13T17:00:34.259Z,6.80
2019-01-13T17:03:02.869Z,6.80
2019-01-13T17:05:31.586Z,6.80
2019-01-13T17:07:59.905Z,6.80
2019-01-13T17:10:28.594Z,6.80
2019-01-13T17:12:57.066Z,6.80
2019-01-13T17:15:30.954Z,6.90
2019-01-13T17:17:59.364Z,6.80
2019-01-13T17:20:27.841Z,6.90
2019-01-13T17:22:56.348Z,6.80
2019-01-13T17:25:25.805Z,6.80
2019-01-13T17:27:56.793Z,6.80
2019-01-13T17:30:27.167Z,6.70
2019-01-13T17:32:55.854Z,6.70
2019-01-13T17:35:24.442Z,6.70
2019-01-13T17:37:52.976Z,6.70
2019-01-13T17:40:23.821Z,6.70
2019-01-13T17:43:06.007Z,6.70
2019-01-13T17:45:35.255Z,6.70
2019-01-13T17:48:05.089Z,6.70
2019-01-13T17:50:33.597Z,6.70
2019-01-13T17:53:02.129Z,6.80
2019-01-13T17:55:30.788Z,6.80
2019-01-13T17:57:59.702Z,6.80
2019-01-13T18:00:43.070Z,6.80
2019-01-13T18:03:13.058Z,6.80
2019-01-13T18:05:41.649Z,6.70
2019-01-13T18:08:10.115Z,6.70
2019-01-13T18:10:40.911Z,6.70
2019-01-13T18:13:09.555Z,6.70
2019-01-13T18:15:38.040Z,6.70
2019-01-13T18:18:06.757Z,6.60
2019-01-13T18:20:35.243Z,6.60
2019-01-13T18:23:03.675Z,6.60
2019-01-13T18:25:32.414Z,6.60
2019-01-13T18:28:00.821Z,6.60
2019-01-13T18:30:29.478Z,6.60
2019-01-13T18:32:58.013Z,6.60
2019-01-13T18:35:26.491Z,6.60
2019-01-13T18:37:55.113Z,6.50
2019-01-13T18:40:23.833Z,6.40
2019-01-13T18:42:52.253Z,6.40
2019-01-13T18:45:20.832Z,6.30
2019-01-13T18:47:49.446Z,6.30
2019-01-13T18:50:19.128Z,6.20
2019-01-13T18:52:50.737Z,6.20
2019-01-13T18:55:20.165Z,6.20
2019-01-13T18:57:48.750Z,6.10
2019-01-13T19:00:19.153Z,6.10
2019-01-13T19:02:47.669Z,6.10
2019-01-13T19:05:18.274Z,6.10
2019-01-13T19:07:46.977Z,6.10
2019-01-13T19:10:28.549Z,6.10
2019-01-13T19:13:01.462Z,6.10
2019-01-13T19:15:30.054Z,6.10
2019-01-13T19:17:58.915Z,6.10
2019-01-13T19:20:33.541Z,6.10
2019-01-13T19:23:07.781Z,6.10
2019-01-13T19:25:36.401Z,6.10
2019-01-13T19:28:05.356Z,6.10
2019-01-13T19:30:34.026Z,6.10
2019-01-13T19:33:02.543Z,6.10
2019-01-13T19:35:31.110Z,6.10
2019-01-13T19:37:59.528Z,6.10
2019-01-13T19:40:28.056Z,6.10
2019-01-13T19:42:56.372Z,6.10
2019-01-13T19:45:25.048Z,6.20
2019-01-13T19:47:53.365Z,6.10
2019-01-13T19:50:24.080Z,6.10
2019-01-13T19:52:53.561Z,6.10
2019-01-13T19:55:22.345Z,6.00
2019-01-13T19:57:51.086Z,6.00
2019-01-13T20:00:25.911Z,5.90
2019-01-13T20:02:54.719Z,5.90
2019-01-13T20:05:23.774Z,5.90
2019-01-13T20:07:52.466Z,5.90
2019-01-13T20:10:20.816Z,6.00
2019-01-13T20:12:49.489Z,5.90
2019-01-13T20:15:18.521Z,6.00
2019-01-13T20:17:47.137Z,6.10
2019-01-13T20:20:17.413Z,6.10
2019-01-13T20:22:46.598Z,6.30
2019-01-13T20:25:15.438Z,6.40
2019-01-13T20:27:44.496Z,6.50
2019-01-13T20:30:16.073Z,6.50
2019-01-13T20:32:58.645Z,6.60
2019-01-13T20:35:28.334Z,6.70
2019-01-13T20:37:56.869Z,6.80
2019-01-13T20:40:25.386Z,6.80
2019-01-13T20:42:53.900Z,6.90
2019-01-13T20:45:34.976Z,6.90
2019-01-13T20:48:05.141Z,6.90
2019-01-13T20:50:33.473Z,6.90
2019-01-13T20:53:02.224Z,6.90
2019-01-13T20:55:30.825Z,6.80
2019-01-13T20:57:59.567Z,6.80
2019-01-13T21:00:28.451Z,6.70
2019-01-13T21:02:57.201Z,6.70
2019-01-13T21:05:27.009Z,6.60
2019-01-13T21:07:55.991Z,6.60
2019-01-13T21:10:24.796Z,6.50
2019-01-13T21:12:53.544Z,6.50
2019-01-13T21:15:27.450Z,6.50
2019-01-13T21:17:57.708Z,6.60
2019-01-13T21:20:27.701Z,6.70
2019-01-13T21:22:56.113Z,6.60
2019-01-13T21:25:24.685Z,6.60
2019-01-13T21:27:54.603Z,6.60
2019-01-13T21:30:26.294Z,6.50
2019-01-13T21:32:55.152Z,6.40
2019-01-13T21:35:24.971Z,6.30
2019-01-13T21:37:53.997Z,6.20
2019-01-13T21:40:23.017Z,6.10
2019-01-13T21:42:51.896Z,6.00
2019-01-13T21:45:21.341Z,6.00
2019-01-13T21:47:49.905Z,5.90
2019-01-13T21:50:20.245Z,5.80
2019-01-13T21:52:48.953Z,5.70
2019-01-13T21:55:18.361Z,5.70
2019-01-13T21:57:47.177Z,5.60
2019-01-13T22:00:19.787Z,5.60
2019-01-13T22:02:48.530Z,5.60
2019-01-13T22:05:18.346Z,5.70
2019-01-13T22:07:47.077Z,5.80
2019-01-13T22:10:18.380Z,5.80
2019-01-13T22:12:47.154Z,5.90
2019-01-13T22:15:17.188Z,6.00
2019-01-13T22:17:45.688Z,6.00
2019-01-13T22:20:16.383Z,6.10
2019-01-13T22:22:45.275Z,6.10
2019-01-13T22:25:15.897Z,6.40
2019-01-13T22:27:44.552Z,6.50
2019-01-13T22:30:15.325Z,6.60
2019-01-13T22:32:43.945Z,6.70
2019-01-13T22:35:12.605Z,6.80
2019-01-13T22:37:42.492Z,6.90
2019-01-13T22:40:14.122Z,6.90
2019-01-13T22:42:42.525Z,6.90
2019-01-13T22:45:13.235Z,7.00
2019-01-13T22:47:41.614Z,7.00
2019-01-13T22:50:11.545Z,7.00
2019-01-13T22:52:40.041Z,7.00
2019-01-13T22:55:09.168Z,7.00
2019-01-13T22:57:37.672Z,7.00
2019-01-13T23:00:32.100Z,7.00
2019-01-13T23:03:01.133Z,7.00
2019-01-13T23:05:30.761Z,6.90
2019-01-13T23:07:59.250Z,6.90
2019-01-13T23:10:27.632Z,7.00
2019-01-13T23:12:57.049Z,7.00
2019-01-13T23:15:25.509Z,7.00
2019-01-13T23:17:53.821Z,7.00
2019-01-13T23:20:22.302Z,7.10
2019-01-13T23:22:50.642Z,7.10
2019-01-13T23:25:19.073Z,7.00
2019-01-13T23:27:48.614Z,7.00
2019-01-13T23:30:17.203Z,7.00
2019-01-13T23:32:45.713Z,7.00
2019-01-13T23:35:14.170Z,7.00
2019-01-13T23:37:42.578Z,7.00
2019-01-13T23:40:11.502Z,7.00
2019-01-13T23:42:39.814Z,7.10
2019-01-13T23:45:25.525Z,7.00
2019-01-13T23:47:53.857Z,7.00
2019-01-13T23:50:22.310Z,7.00
2019-01-13T23:52:50.778Z,7.00
2019-01-13T23:55:19.282Z,7.00
2019-01-13T23:57:47.775Z,7.10
